sensor_id;sensor_type;location;lat;lon;timestamp;pressure;altitude;pressure_sealevel;temperature;humidity
27685;BME280;46113;50.130;8.526;2023-09-19T00:00:47;98501.75;;;13.49;80.49
27685;BME280;46113;50.130;8.526;2023-09-19T00:03:16;98506.84;;;13.41;80.56
27685;BME280;46113;50.130;8.526;2023-09-19T00:05:44;98516.28;;;13.34;79.94
27685;BME280;46113;50.130;8.526;2023-09-19T00:08:12;98516.34;;;13.55;78.82
27685;BME280;46113;50.130;8.526;2023-09-19T00:10:43;98515.56;;;13.64;78.92
27685;BME280;46113;50.130;8.526;2023-09-19T00:13:11;98523.94;;;13.60;79.12
27685;BME280;46113;50.130;8.526;2023-09-19T00:15:46;98516.44;;;13.65;78.94
27685;BME280;46113;50.130;8.526;2023-09-19T00:18:18;98521.03;;;13.63;79.24
27685;BME280;46113;50.130;8.526;2023-09-19T00:20:48;98515.09;;;13.59;78.63
27685;BME280;46113;50.130;8.526;2023-09-19T00:23:16;98519.00;;;13.55;79.40
27685;BME280;46113;50.130;8.526;2023-09-19T00:25:43;98516.94;;;13.59;79.08
27685;BME280;46113;50.130;8.526;2023-09-19T00:28:12;98521.03;;;13.63;78.74
27685;BME280;46113;50.130;8.526;2023-09-19T00:30:42;98522.13;;;13.60;78.70
27685;BME280;46113;50.130;8.526;2023-09-19T00:33:11;98527.06;;;13.65;78.58
27685;BME280;46113;50.130;8.526;2023-09-19T00:35:53;98528.75;;;13.66;79.21
27685;BME280;46113;50.130;8.526;2023-09-19T00:38:21;98516.47;;;13.54;79.34
27685;BME280;46113;50.130;8.526;2023-09-19T00:40:50;98522.97;;;13.61;78.82
27685;BME280;46113;50.130;8.526;2023-09-19T00:43:23;98529.97;;;13.62;79.30
27685;BME280;46113;50.130;8.526;2023-09-19T00:45:53;98528.03;;;13.64;80.02
27685;BME280;46113;50.130;8.526;2023-09-19T00:48:22;98528.28;;;13.61;80.16
27685;BME280;46113;50.130;8.526;2023-09-19T00:50:49;98530.81;;;13.62;79.92
27685;BME280;46113;50.130;8.526;2023-09-19T00:53:20;98527.63;;;13.69;79.96
27685;BME280;46113;50.130;8.526;2023-09-19T00:55:48;98534.63;;;13.70;79.69
27685;BME280;46113;50.130;8.526;2023-09-19T00:58:19;98542.03;;;13.66;79.52
27685;BME280;46113;50.130;8.526;2023-09-19T01:00:50;98534.19;;;13.64;79.22
27685;BME280;46113;50.130;8.526;2023-09-19T01:03:18;98539.94;;;13.70;78.82
27685;BME280;46113;50.130;8.526;2023-09-19T01:05:45;98536.72;;;13.66;79.32
27685;BME280;46113;50.130;8.526;2023-09-19T01:08:12;98540.09;;;13.68;79.18
27685;BME280;46113;50.130;8.526;2023-09-19T01:10:49;98532.53;;;13.52;80.33
27685;BME280;46113;50.130;8.526;2023-09-19T01:13:26;98532.03;;;13.58;80.03
27685;BME280;46113;50.130;8.526;2023-09-19T01:16:15;98537.09;;;13.61;79.94
27685;BME280;46113;50.130;8.526;2023-09-19T01:22:00;98549.28;;;13.64;79.55
27685;BME280;46113;50.130;8.526;2023-09-19T01:30:35;98552.94;;;13.63;80.54
27685;BME280;46113;50.130;8.526;2023-09-19T01:33:06;98557.16;;;13.65;80.40
27685;BME280;46113;50.130;8.526;2023-09-19T01:35:35;98556.44;;;13.52;80.63
27685;BME280;46113;50.130;8.526;2023-09-19T01:38:06;98559.81;;;13.65;80.80
27685;BME280;46113;50.130;8.526;2023-09-19T01:40:42;98565.88;;;13.56;81.27
27685;BME280;46113;50.130;8.526;2023-09-19T01:43:27;98569.91;;;13.72;80.19
27685;BME280;46113;50.130;8.526;2023-09-19T01:46:08;98567.97;;;13.74;80.73
27685;BME280;46113;50.130;8.526;2023-09-19T01:48:41;98568.09;;;13.72;80.73
27685;BME280;46113;50.130;8.526;2023-09-19T01:51:20;98579.00;;;13.69;79.55
27685;BME280;46113;50.130;8.526;2023-09-19T01:54:00;98574.19;;;13.63;80.20
27685;BME280;46113;50.130;8.526;2023-09-19T01:57:16;98578.72;;;13.72;80.11
27685;BME280;46113;50.130;8.526;2023-09-19T01:59:53;98569.47;;;13.67;79.77
27685;BME280;46113;50.130;8.526;2023-09-19T02:02:24;98569.97;;;13.60;79.60
27685;BME280;46113;50.130;8.526;2023-09-19T02:04:54;98577.44;;;13.67;79.86
27685;BME280;46113;50.130;8.526;2023-09-19T02:07:25;98584.34;;;13.58;79.76
27685;BME280;46113;50.130;8.526;2023-09-19T02:09:54;98594.59;;;13.62;79.35
27685;BME280;46113;50.130;8.526;2023-09-19T02:12:22;98590.13;;;13.51;79.42
27685;BME280;46113;50.130;8.526;2023-09-19T02:14:49;98592.03;;;13.61;79.66
27685;BME280;46113;50.130;8.526;2023-09-19T02:17:16;98594.34;;;13.65;80.30
27685;BME280;46113;50.130;8.526;2023-09-19T02:19:43;98600.16;;;13.48;80.84
27685;BME280;46113;50.130;8.526;2023-09-19T02:22:11;98602.31;;;13.54;81.93
27685;BME280;46113;50.130;8.526;2023-09-19T02:24:47;98606.56;;;13.45;81.19
27685;BME280;46113;50.130;8.526;2023-09-19T02:27:26;98601.38;;;13.44;81.54
27685;BME280;46113;50.130;8.526;2023-09-19T02:29:52;98601.50;;;13.54;81.66
27685;BME280;46113;50.130;8.526;2023-09-19T02:32:21;98614.47;;;13.35;81.55
27685;BME280;46113;50.130;8.526;2023-09-19T02:34:48;98606.22;;;13.50;81.42
27685;BME280;46113;50.130;8.526;2023-09-19T02:37:15;98602.59;;;13.39;82.05
27685;BME280;46113;50.130;8.526;2023-09-19T02:39:43;98608.88;;;13.50;81.75
27685;BME280;46113;50.130;8.526;2023-09-19T02:42:11;98616.84;;;13.50;82.06
27685;BME280;46113;50.130;8.526;2023-09-19T02:44:38;98614.22;;;13.27;82.72
27685;BME280;46113;50.130;8.526;2023-09-19T02:47:07;98625.31;;;13.21;82.95
27685;BME280;46113;50.130;8.526;2023-09-19T02:49:34;98619.28;;;13.19;82.92
27685;BME280;46113;50.130;8.526;2023-09-19T02:58:06;98636.53;;;13.24;82.43
27685;BME280;46113;50.130;8.526;2023-09-19T03:00:39;98636.56;;;13.13;82.81
27685;BME280;46113;50.130;8.526;2023-09-19T03:03:10;98643.53;;;13.14;82.67
27685;BME280;46113;50.130;8.526;2023-09-19T03:05:39;98640.13;;;13.00;83.45
27685;BME280;46113;50.130;8.526;2023-09-19T03:08:07;98636.19;;;13.18;82.92
27685;BME280;46113;50.130;8.526;2023-09-19T03:10:34;98638.81;;;13.06;83.15
27685;BME280;46113;50.130;8.526;2023-09-19T03:13:05;98640.59;;;13.06;83.02
27685;BME280;46113;50.130;8.526;2023-09-19T03:15:33;98643.66;;;13.12;83.29
27685;BME280;46113;50.130;8.526;2023-09-19T03:18:02;98646.56;;;13.09;83.25
27685;BME280;46113;50.130;8.526;2023-09-19T03:20:30;98644.03;;;13.08;82.97
27685;BME280;46113;50.130;8.526;2023-09-19T03:22:57;98649.94;;;13.11;82.77
27685;BME280;46113;50.130;8.526;2023-09-19T03:25:24;98655.94;;;13.02;82.96
27685;BME280;46113;50.130;8.526;2023-09-19T03:27:52;98646.13;;;12.80;83.35
27685;BME280;46113;50.130;8.526;2023-09-19T03:30:22;98656.28;;;12.86;83.21
27685;BME280;46113;50.130;8.526;2023-09-19T03:32:51;98654.97;;;12.80;83.66
27685;BME280;46113;50.130;8.526;2023-09-19T03:35:20;98653.28;;;12.79;83.76
27685;BME280;46113;50.130;8.526;2023-09-19T03:37:48;98664.00;;;12.78;84.15
27685;BME280;46113;50.130;8.526;2023-09-19T03:40:17;98656.03;;;12.66;84.75
27685;BME280;46113;50.130;8.526;2023-09-19T03:42:51;98656.97;;;12.65;84.92
27685;BME280;46113;50.130;8.526;2023-09-19T03:45:20;98656.34;;;12.62;84.87
27685;BME280;46113;50.130;8.526;2023-09-19T03:47:51;98660.31;;;12.56;85.17
27685;BME280;46113;50.130;8.526;2023-09-19T03:50:21;98657.06;;;12.52;85.34
27685;BME280;46113;50.130;8.526;2023-09-19T03:52:56;98656.34;;;12.50;85.12
27685;BME280;46113;50.130;8.526;2023-09-19T03:55:25;98652.31;;;12.44;85.46
27685;BME280;46113;50.130;8.526;2023-09-19T03:57:53;98649.28;;;12.38;85.80
27685;BME280;46113;50.130;8.526;2023-09-19T04:18:11;98661.69;;;11.88;86.31
27685;BME280;46113;50.130;8.526;2023-09-19T04:20:39;98665.53;;;11.84;86.20
27685;BME280;46113;50.130;8.526;2023-09-19T04:23:06;98666.59;;;11.81;86.03
27685;BME280;46113;50.130;8.526;2023-09-19T04:25:34;98670.09;;;11.82;86.65
27685;BME280;46113;50.130;8.526;2023-09-19T04:28:01;98670.31;;;11.79;86.15
27685;BME280;46113;50.130;8.526;2023-09-19T04:30:28;98671.50;;;11.75;86.06
27685;BME280;46113;50.130;8.526;2023-09-19T04:32:55;98671.38;;;11.76;85.92
27685;BME280;46113;50.130;8.526;2023-09-19T04:35:25;98672.03;;;11.67;85.62
27685;BME280;46113;50.130;8.526;2023-09-19T04:37:53;98680.75;;;11.69;85.54
27685;BME280;46113;50.130;8.526;2023-09-19T04:40:21;98680.84;;;11.67;85.62
27685;BME280;46113;50.130;8.526;2023-09-19T04:42:56;98688.31;;;11.49;86.70
27685;BME280;46113;50.130;8.526;2023-09-19T04:45:23;98694.97;;;11.55;86.31
27685;BME280;46113;50.130;8.526;2023-09-19T04:47:50;98700.59;;;11.50;86.41
27685;BME280;46113;50.130;8.526;2023-09-19T04:50:17;98702.41;;;11.50;86.72
27685;BME280;46113;50.130;8.526;2023-09-19T04:52:44;98699.34;;;11.43;86.62
27685;BME280;46113;50.130;8.526;2023-09-19T04:55:15;98713.41;;;11.44;86.84
27685;BME280;46113;50.130;8.526;2023-09-19T04:57:49;98704.94;;;11.51;86.66
27685;BME280;46113;50.130;8.526;2023-09-19T05:00:18;98709.50;;;11.49;86.99
27685;BME280;46113;50.130;8.526;2023-09-19T05:02:52;98713.84;;;11.50;87.50
27685;BME280;46113;50.130;8.526;2023-09-19T05:05:19;98719.75;;;11.54;87.75
27685;BME280;46113;50.130;8.526;2023-09-19T05:07:46;98713.28;;;11.58;87.59
27685;BME280;46113;50.130;8.526;2023-09-19T05:10:14;98715.28;;;11.67;87.51
27685;BME280;46113;50.130;8.526;2023-09-19T05:12:41;98712.94;;;11.76;87.62
27685;BME280;46113;50.130;8.526;2023-09-19T05:15:08;98720.66;;;11.79;86.94
27685;BME280;46113;50.130;8.526;2023-09-19T05:17:35;98720.25;;;11.72;85.21
27685;BME280;46113;50.130;8.526;2023-09-19T05:20:03;98716.19;;;11.92;83.57
27685;BME280;46113;50.130;8.526;2023-09-19T05:22:33;98720.25;;;11.85;82.33
27685;BME280;46113;50.130;8.526;2023-09-19T05:25:00;98718.47;;;11.97;82.35
27685;BME280;46113;50.130;8.526;2023-09-19T05:27:29;98722.69;;;12.13;81.10
27685;BME280;46113;50.130;8.526;2023-09-19T05:29:57;98725.47;;;12.11;78.59
27685;BME280;46113;50.130;8.526;2023-09-19T05:32:25;98724.50;;;12.37;79.19
27685;BME280;46113;50.130;8.526;2023-09-19T05:34:52;98734.72;;;12.30;77.69
27685;BME280;46113;50.130;8.526;2023-09-19T05:37:23;98738.22;;;12.30;77.27
27685;BME280;46113;50.130;8.526;2023-09-19T05:39:50;98731.00;;;12.32;76.79
27685;BME280;46113;50.130;8.526;2023-09-19T05:42:16;98733.59;;;12.21;76.91
27685;BME280;46113;50.130;8.526;2023-09-19T05:44:43;98725.13;;;12.16;76.76
27685;BME280;46113;50.130;8.526;2023-09-19T05:47:10;98719.78;;;12.04;76.94
27685;BME280;46113;50.130;8.526;2023-09-19T05:49:37;98726.94;;;12.15;76.36
27685;BME280;46113;50.130;8.526;2023-09-19T05:52:07;98720.81;;;12.15;75.87
27685;BME280;46113;50.130;8.526;2023-09-19T05:54:34;98726.34;;;12.36;75.86
27685;BME280;46113;50.130;8.526;2023-09-19T05:57:00;98725.09;;;12.29;75.56
27685;BME280;46113;50.130;8.526;2023-09-19T05:59:28;98725.47;;;12.36;75.54
27685;BME280;46113;50.130;8.526;2023-09-19T06:01:55;98732.94;;;12.30;74.75
27685;BME280;46113;50.130;8.526;2023-09-19T06:04:21;98731.63;;;12.36;74.93
27685;BME280;46113;50.130;8.526;2023-09-19T06:06:49;98743.81;;;12.39;74.60
27685;BME280;46113;50.130;8.526;2023-09-19T06:09:16;98745.72;;;12.37;74.26
27685;BME280;46113;50.130;8.526;2023-09-19T06:11:43;98752.81;;;12.49;74.12
27685;BME280;46113;50.130;8.526;2023-09-19T06:14:10;98749.34;;;12.36;74.86
27685;BME280;46113;50.130;8.526;2023-09-19T06:16:38;98752.41;;;12.42;75.05
27685;BME280;46113;50.130;8.526;2023-09-19T06:19:06;98751.31;;;12.45;76.20
27685;BME280;46113;50.130;8.526;2023-09-19T06:21:36;98758.25;;;12.59;76.21
27685;BME280;46113;50.130;8.526;2023-09-19T06:24:03;98750.09;;;12.73;76.08
27685;BME280;46113;50.130;8.526;2023-09-19T06:26:30;98757.72;;;12.78;75.69
27685;BME280;46113;50.130;8.526;2023-09-19T06:28:57;98758.69;;;12.77;75.55
27685;BME280;46113;50.130;8.526;2023-09-19T06:31:26;98754.22;;;12.78;75.58
27685;BME280;46113;50.130;8.526;2023-09-19T06:33:53;98761.34;;;12.77;75.63
27685;BME280;46113;50.130;8.526;2023-09-19T06:36:20;98769.31;;;12.89;75.18
27685;BME280;46113;50.130;8.526;2023-09-19T06:38:46;98770.75;;;12.81;74.32
27685;BME280;46113;50.130;8.526;2023-09-19T06:41:13;98772.31;;;12.72;74.26
27685;BME280;46113;50.130;8.526;2023-09-19T06:43:42;98771.16;;;12.88;73.79
27685;BME280;46113;50.130;8.526;2023-09-19T06:46:09;98775.31;;;13.04;73.44
27685;BME280;46113;50.130;8.526;2023-09-19T06:48:36;98775.84;;;12.84;72.75
27685;BME280;46113;50.130;8.526;2023-09-19T06:51:03;98779.38;;;12.96;73.17
27685;BME280;46113;50.130;8.526;2023-09-19T06:53:32;98790.06;;;13.08;71.75
27685;BME280;46113;50.130;8.526;2023-09-19T06:55:59;98791.66;;;13.22;71.50
27685;BME280;46113;50.130;8.526;2023-09-19T06:58:26;98795.91;;;13.24;71.38
27685;BME280;46113;50.130;8.526;2023-09-19T07:00:52;98799.41;;;13.36;72.20
27685;BME280;46113;50.130;8.526;2023-09-19T07:03:20;98795.09;;;13.47;71.70
27685;BME280;46113;50.130;8.526;2023-09-19T07:05:48;98807.88;;;13.64;71.49
27685;BME280;46113;50.130;8.526;2023-09-19T07:08:15;98809.19;;;13.36;71.35
27685;BME280;46113;50.130;8.526;2023-09-19T07:10:42;98816.72;;;13.42;70.36
27685;BME280;46113;50.130;8.526;2023-09-19T07:13:16;98812.00;;;13.46;70.20
27685;BME280;46113;50.130;8.526;2023-09-19T07:15:45;98817.22;;;13.70;69.53
27685;BME280;46113;50.130;8.526;2023-09-19T07:18:17;98809.22;;;13.82;69.60
27685;BME280;46113;50.130;8.526;2023-09-19T07:20:45;98814.56;;;13.93;69.19
27685;BME280;46113;50.130;8.526;2023-09-19T07:23:19;98822.44;;;14.17;68.41
27685;BME280;46113;50.130;8.526;2023-09-19T07:25:48;98831.94;;;14.31;68.38
27685;BME280;46113;50.130;8.526;2023-09-19T07:28:16;98832.94;;;14.08;67.81
27685;BME280;46113;50.130;8.526;2023-09-19T07:30:42;98841.03;;;14.29;67.58
27685;BME280;46113;50.130;8.526;2023-09-19T07:33:09;98838.63;;;14.14;67.80
27685;BME280;46113;50.130;8.526;2023-09-19T07:35:39;98848.78;;;14.09;67.81
27685;BME280;46113;50.130;8.526;2023-09-19T07:38:08;98850.69;;;13.96;68.34
27685;BME280;46113;50.130;8.526;2023-09-19T07:40:38;98858.06;;;14.03;68.71
27685;BME280;46113;50.130;8.526;2023-09-19T07:43:05;98862.66;;;14.01;68.43
27685;BME280;46113;50.130;8.526;2023-09-19T07:45:33;98865.47;;;14.11;68.35
27685;BME280;46113;50.130;8.526;2023-09-19T07:48:00;98863.03;;;14.20;67.22
27685;BME280;46113;50.130;8.526;2023-09-19T07:50:31;98864.72;;;14.21;68.51
27685;BME280;46113;50.130;8.526;2023-09-19T07:52:59;98864.47;;;14.35;66.20
27685;BME280;46113;50.130;8.526;2023-09-19T07:55:26;98871.00;;;14.20;66.81
27685;BME280;46113;50.130;8.526;2023-09-19T07:57:52;98864.25;;;14.04;67.27
27685;BME280;46113;50.130;8.526;2023-09-19T08:00:19;98878.88;;;14.44;66.27
27685;BME280;46113;50.130;8.526;2023-09-19T08:02:46;98874.34;;;14.56;67.01
27685;BME280;46113;50.130;8.526;2023-09-19T08:05:24;98870.75;;;14.57;65.32
27685;BME280;46113;50.130;8.526;2023-09-19T08:07:51;98878.56;;;14.70;64.45
27685;BME280;46113;50.130;8.526;2023-09-19T08:10:19;98879.44;;;14.59;64.00
27685;BME280;46113;50.130;8.526;2023-09-19T08:12:47;98882.41;;;14.77;63.40
27685;BME280;46113;50.130;8.526;2023-09-19T08:15:19;98880.34;;;14.25;62.94
27685;BME280;46113;50.130;8.526;2023-09-19T08:17:47;98889.03;;;14.94;61.93
27685;BME280;46113;50.130;8.526;2023-09-19T08:20:14;98889.88;;;14.95;61.85
27685;BME280;46113;50.130;8.526;2023-09-19T08:22:49;98888.78;;;15.30;61.84
27685;BME280;46113;50.130;8.526;2023-09-19T08:25:19;98884.66;;;15.05;60.51
27685;BME280;46113;50.130;8.526;2023-09-19T08:27:46;98893.09;;;15.10;59.38
27685;BME280;46113;50.130;8.526;2023-09-19T08:30:20;98886.59;;;15.03;60.38
27685;BME280;46113;50.130;8.526;2023-09-19T08:32:57;98889.28;;;15.24;57.86
27685;BME280;46113;50.130;8.526;2023-09-19T08:35:25;98888.13;;;15.17;59.64
27685;BME280;46113;50.130;8.526;2023-09-19T08:37:52;98901.63;;;14.92;59.53
27685;BME280;46113;50.130;8.526;2023-09-19T08:40:19;98895.75;;;15.64;59.04
27685;BME280;46113;50.130;8.526;2023-09-19T08:42:50;98895.31;;;15.59;58.41
27685;BME280;46113;50.130;8.526;2023-09-19T08:45:17;98898.59;;;15.72;56.87
27685;BME280;46113;50.130;8.526;2023-09-19T08:53:27;98908.50;;;14.95;58.66
27685;BME280;46113;50.130;8.526;2023-09-19T08:56:00;98910.94;;;14.98;58.15
27685;BME280;46113;50.130;8.526;2023-09-19T08:58:33;98910.31;;;14.94;58.54
27685;BME280;46113;50.130;8.526;2023-09-19T09:01:02;98918.59;;;15.24;57.40
27685;BME280;46113;50.130;8.526;2023-09-19T09:03:32;98922.88;;;15.15;57.40
27685;BME280;46113;50.130;8.526;2023-09-19T09:06:01;98922.53;;;15.84;56.51
27685;BME280;46113;50.130;8.526;2023-09-19T09:08:30;98917.25;;;15.72;55.04
27685;BME280;46113;50.130;8.526;2023-09-19T09:10:58;98914.78;;;15.59;53.77
27685;BME280;46113;50.130;8.526;2023-09-19T09:13:25;98916.94;;;15.87;53.41
27685;BME280;46113;50.130;8.526;2023-09-19T09:15:53;98920.31;;;15.46;53.88
27685;BME280;46113;50.130;8.526;2023-09-19T09:18:21;98916.50;;;15.60;53.44
27685;BME280;46113;50.130;8.526;2023-09-19T09:20:49;98907.56;;;15.29;53.38
27685;BME280;46113;50.130;8.526;2023-09-19T09:23:16;98920.72;;;15.63;52.91
27685;BME280;46113;50.130;8.526;2023-09-19T09:25:49;98920.53;;;15.76;53.40
27685;BME280;46113;50.130;8.526;2023-09-19T09:28:21;98917.94;;;15.86;53.93
27685;BME280;46113;50.130;8.526;2023-09-19T09:30:48;98906.78;;;16.33;54.28
27685;BME280;46113;50.130;8.526;2023-09-19T09:33:15;98904.28;;;16.41;51.59
27685;BME280;46113;50.130;8.526;2023-09-19T09:35:49;98917.59;;;16.32;53.82
27685;BME280;46113;50.130;8.526;2023-09-19T09:38:20;98910.75;;;16.08;53.58
27685;BME280;46113;50.130;8.526;2023-09-19T09:40:49;98909.94;;;15.86;52.66
27685;BME280;46113;50.130;8.526;2023-09-19T09:43:34;98916.03;;;16.29;53.77
27685;BME280;46113;50.130;8.526;2023-09-19T09:46:15;98918.34;;;16.43;53.80
27685;BME280;46113;50.130;8.526;2023-09-19T09:48:57;98917.66;;;16.51;51.28
27685;BME280;46113;50.130;8.526;2023-09-19T09:52:02;98916.97;;;16.59;50.66
27685;BME280;46113;50.130;8.526;2023-09-19T09:54:37;98910.44;;;16.73;48.79
27685;BME280;46113;50.130;8.526;2023-09-19T09:57:09;98918.78;;;16.90;50.97
27685;BME280;46113;50.130;8.526;2023-09-19T09:59:57;98916.41;;;16.65;48.93
27685;BME280;46113;50.130;8.526;2023-09-19T10:02:43;98918.59;;;16.81;48.78
27685;BME280;46113;50.130;8.526;2023-09-19T10:05:15;98913.34;;;16.70;48.38
27685;BME280;46113;50.130;8.526;2023-09-19T10:07:55;98924.81;;;17.02;46.32
27685;BME280;46113;50.130;8.526;2023-09-19T10:10:35;98918.50;;;17.03;48.65
27685;BME280;46113;50.130;8.526;2023-09-19T10:13:21;98937.09;;;16.63;47.81
27685;BME280;46113;50.130;8.526;2023-09-19T10:15:51;98924.69;;;16.93;46.35
27685;BME280;46113;50.130;8.526;2023-09-19T10:18:24;98917.66;;;16.92;47.60
27685;BME280;46113;50.130;8.526;2023-09-19T10:20:52;98920.19;;;17.04;48.62
27685;BME280;46113;50.130;8.526;2023-09-19T10:23:20;98934.41;;;16.63;49.17
27685;BME280;46113;50.130;8.526;2023-09-19T10:25:52;98929.72;;;16.87;48.93
27685;BME280;46113;50.130;8.526;2023-09-19T10:28:20;98932.97;;;16.18;48.62
27685;BME280;46113;50.130;8.526;2023-09-19T10:30:52;98930.97;;;16.82;48.57
27685;BME280;46113;50.130;8.526;2023-09-19T10:33:24;98929.41;;;16.80;46.34
27685;BME280;46113;50.130;8.526;2023-09-19T10:35:59;98928.34;;;16.51;48.10
27685;BME280;46113;50.130;8.526;2023-09-19T10:38:27;98931.81;;;16.83;46.63
27685;BME280;46113;50.130;8.526;2023-09-19T10:40:56;98939.72;;;17.04;47.86
27685;BME280;46113;50.130;8.526;2023-09-19T10:43:32;98941.56;;;17.04;49.05
27685;BME280;46113;50.130;8.526;2023-09-19T10:46:06;98928.63;;;17.09;47.30
27685;BME280;46113;50.130;8.526;2023-09-19T10:48:34;98940.41;;;16.77;45.90
27685;BME280;46113;50.130;8.526;2023-09-19T10:51:02;98950.13;;;17.07;46.59
27685;BME280;46113;50.130;8.526;2023-09-19T10:53:43;98941.56;;;17.14;47.19
27685;BME280;46113;50.130;8.526;2023-09-19T10:56:18;98947.00;;;16.82;46.30
27685;BME280;46113;50.130;8.526;2023-09-19T10:58:45;98955.28;;;16.48;46.83
27685;BME280;46113;50.130;8.526;2023-09-19T11:01:12;98943.84;;;16.26;46.18
27685;BME280;46113;50.130;8.526;2023-09-19T11:03:42;98949.47;;;16.33;46.69
27685;BME280;46113;50.130;8.526;2023-09-19T11:06:14;98944.69;;;16.27;46.60
27685;BME280;46113;50.130;8.526;2023-09-19T11:11:42;98936.34;;;16.51;46.53
27685;BME280;46113;50.130;8.526;2023-09-19T11:14:37;98937.38;;;16.29;46.01
27685;BME280;46113;50.130;8.526;2023-09-19T11:30:41;98916.94;;;15.87;46.12
27685;BME280;46113;50.130;8.526;2023-09-19T11:33:28;98912.34;;;15.89;45.22
27685;BME280;46113;50.130;8.526;2023-09-19T11:36:11;98911.22;;;15.70;45.17
27685;BME280;46113;50.130;8.526;2023-09-19T11:43:49;98916.88;;;15.56;46.10
27685;BME280;46113;50.130;8.526;2023-09-19T11:46:21;98901.47;;;15.38;45.45
27685;BME280;46113;50.130;8.526;2023-09-19T11:48:51;98912.59;;;15.43;46.12
27685;BME280;46113;50.130;8.526;2023-09-19T11:51:22;98915.50;;;15.40;47.04
27685;BME280;46113;50.130;8.526;2023-09-19T11:53:50;98906.47;;;15.31;46.61
27685;BME280;46113;50.130;8.526;2023-09-19T11:56:19;98913.34;;;15.34;47.30
27685;BME280;46113;50.130;8.526;2023-09-19T11:58:52;98909.84;;;15.55;47.45
27685;BME280;46113;50.130;8.526;2023-09-19T12:01:25;98909.84;;;15.55;49.04
27685;BME280;46113;50.130;8.526;2023-09-19T12:03:57;98898.09;;;15.57;48.98
27685;BME280;46113;50.130;8.526;2023-09-19T12:06:25;98909.47;;;15.38;47.69
27685;BME280;46113;50.130;8.526;2023-09-19T12:08:53;98908.69;;;15.69;50.45
27685;BME280;46113;50.130;8.526;2023-09-19T12:11:27;98896.91;;;15.29;48.63
27685;BME280;46113;50.130;8.526;2023-09-19T12:13:55;98908.50;;;15.60;48.04
27685;BME280;46113;50.130;8.526;2023-09-19T12:16:25;98900.31;;;15.73;49.09
27685;BME280;46113;50.130;8.526;2023-09-19T12:18:52;98897.63;;;15.73;47.01
27685;BME280;46113;50.130;8.526;2023-09-19T12:21:27;98903.00;;;15.62;46.37
27685;BME280;46113;50.130;8.526;2023-09-19T12:24:11;98907.25;;;16.07;46.21
27685;BME280;46113;50.130;8.526;2023-09-19T12:26:41;98903.53;;;15.77;46.95
27685;BME280;46113;50.130;8.526;2023-09-19T12:29:19;98897.69;;;15.62;45.33
27685;BME280;46113;50.130;8.526;2023-09-19T12:31:54;98904.50;;;15.97;45.56
27685;BME280;46113;50.130;8.526;2023-09-19T12:34:25;98906.59;;;15.94;45.04
27685;BME280;46113;50.130;8.526;2023-09-19T12:37:08;98901.28;;;15.94;45.53
27685;BME280;46113;50.130;8.526;2023-09-19T12:39:40;98908.94;;;15.87;44.18
27685;BME280;46113;50.130;8.526;2023-09-19T12:42:10;98900.81;;;15.88;44.71
27685;BME280;46113;50.130;8.526;2023-09-19T12:44:42;98907.66;;;15.81;44.92
27685;BME280;46113;50.130;8.526;2023-09-19T12:47:11;98900.16;;;15.75;46.64
27685;BME280;46113;50.130;8.526;2023-09-19T12:50:06;98894.56;;;15.57;46.76
27685;BME280;46113;50.130;8.526;2023-09-19T12:52:56;98900.81;;;15.88;47.07
27685;BME280;46113;50.130;8.526;2023-09-19T12:55:31;98891.84;;;15.89;46.89
27685;BME280;46113;50.130;8.526;2023-09-19T13:00:35;98879.88;;;15.62;45.18
27685;BME280;46113;50.130;8.526;2023-09-19T13:03:18;98894.44;;;15.80;46.56
27685;BME280;46113;50.130;8.526;2023-09-19T13:06:07;98879.34;;;15.69;46.51
27685;BME280;46113;50.130;8.526;2023-09-19T13:08:38;98877.22;;;15.62;45.84
27685;BME280;46113;50.130;8.526;2023-09-19T13:11:12;98875.22;;;15.55;46.63
27685;BME280;46113;50.130;8.526;2023-09-19T13:13:42;98871.34;;;15.69;46.53
27685;BME280;46113;50.130;8.526;2023-09-19T13:16:15;98871.41;;;15.79;47.07
27685;BME280;46113;50.130;8.526;2023-09-19T13:18:54;98869.00;;;15.75;45.85
27685;BME280;46113;50.130;8.526;2023-09-19T13:21:28;98866.75;;;15.71;45.88
27685;BME280;46113;50.130;8.526;2023-09-19T13:23:58;98858.53;;;15.84;46.99
27685;BME280;46113;50.130;8.526;2023-09-19T13:26:42;98868.16;;;15.75;47.46
27685;BME280;46113;50.130;8.526;2023-09-19T13:29:09;98863.25;;;15.80;45.40
27685;BME280;46113;50.130;8.526;2023-09-19T13:31:36;98862.53;;;15.68;45.53
27685;BME280;46113;50.130;8.526;2023-09-19T13:34:04;98868.13;;;15.86;45.59
27685;BME280;46113;50.130;8.526;2023-09-19T13:36:31;98868.75;;;15.79;46.32
27685;BME280;46113;50.130;8.526;2023-09-19T13:38:58;98867.69;;;15.70;45.84
27685;BME280;46113;50.130;8.526;2023-09-19T13:41:24;98862.09;;;15.63;46.85
27685;BME280;46113;50.130;8.526;2023-09-19T13:43:51;98867.25;;;15.86;45.26
27685;BME280;46113;50.130;8.526;2023-09-19T13:46:18;98865.94;;;15.80;46.48
27685;BME280;46113;50.130;8.526;2023-09-19T13:48:52;98857.22;;;15.78;46.22
27685;BME280;46113;50.130;8.526;2023-09-19T13:51:21;98858.91;;;16.00;45.40
27685;BME280;46113;50.130;8.526;2023-09-19T13:53:52;98868.81;;;15.88;45.68
27685;BME280;46113;50.130;8.526;2023-09-19T13:56:18;98861.00;;;15.75;43.74
27685;BME280;46113;50.130;8.526;2023-09-19T13:58:45;98862.22;;;16.14;47.12
27685;BME280;46113;50.130;8.526;2023-09-19T14:01:11;98861.69;;;15.89;44.47
27685;BME280;46113;50.130;8.526;2023-09-19T14:03:40;98863.69;;;15.97;46.90
27685;BME280;46113;50.130;8.526;2023-09-19T14:06:07;98857.94;;;16.01;46.33
27685;BME280;46113;50.130;8.526;2023-09-19T14:08:34;98849.63;;;15.95;47.41
27685;BME280;46113;50.130;8.526;2023-09-19T14:11:06;98850.53;;;15.84;45.71
27685;BME280;46113;50.130;8.526;2023-09-19T14:13:33;98848.47;;;15.87;46.01
27685;BME280;46113;50.130;8.526;2023-09-19T14:16:07;98848.78;;;15.94;46.84
27685;BME280;46113;50.130;8.526;2023-09-19T14:18:35;98843.25;;;15.86;44.43
27685;BME280;46113;50.130;8.526;2023-09-19T14:21:04;98842.22;;;15.77;46.27